Time;durP1;ratioP1;P1;durP2;ratioP2;P2;SDS_P1;SDS_P2;PMS_P1;PMS_P2;Temp;Humidity;BMP_temperature;BMP_pressure;BME280_temperature;BME280_humidity;BME280_pressure;Samples;Min_cycle;Max_cycle;Signal;HPM_P1;HPM_P2
2022/03/21 00:01:00;;;;;;;8.20;7.50;;;;;;;;;;5097565;28;20658;-53
2022/03/21 00:03:29;;;;;;;8.35;7.63;;;;;;;;;;5098406;28;20224;-53
2022/03/21 00:05:57;;;;;;;8.32;7.55;;;;;;;;;;5097684;28;20292;-53
2022/03/21 00:08:25;;;;;;;8.27;7.47;;;;;;;;;;5097493;28;20294;-53
2022/03/21 00:10:55;;;;;;;7.88;7.18;;;;;;;;;;5097898;28;20294;-53
2022/03/21 00:13:23;;;;;;;8.18;7.38;;;;;;;;;;5097339;28;20210;-53
2022/03/21 00:15:53;;;;;;;7.10;6.50;;;;;;;;;;5097996;28;20204;-53
2022/03/21 00:18:21;;;;;;;7.75;6.95;;;;;;;;;;5097617;28;20530;-53
2022/03/21 00:20:49;;;;;;;7.35;6.75;;;;;;;;;;5097201;28;20211;-53
2022/03/21 00:23:17;;;;;;;7.28;6.68;;;;;;;;;;5097974;28;20231;-53
2022/03/21 00:25:45;;;;;;;7.47;6.78;;;;;;;;;;5097072;28;20196;-53
2022/03/21 00:28:16;;;;;;;6.95;6.35;;;;;;;;;;5096400;28;20311;-53
2022/03/21 00:30:44;;;;;;;7.20;6.60;;;;;;;;;;5098378;28;20298;-53
2022/03/21 00:33:13;;;;;;;6.68;6.07;;;;;;;;;;5096821;28;20226;-53
2022/03/21 00:35:42;;;;;;;7.05;6.45;;;;;;;;;;5097968;28;20570;-53
2022/03/21 00:38:13;;;;;;;7.28;6.57;;;;;;;;;;5096738;28;20203;-53
2022/03/21 00:40:40;;;;;;;7.10;6.50;;;;;;;;;;5097333;28;20298;-53
2022/03/21 00:43:08;;;;;;;6.80;6.20;;;;;;;;;;5097279;28;20228;-53
2022/03/21 00:45:38;;;;;;;6.72;6.13;;;;;;;;;;5096258;28;20306;-53
2022/03/21 00:48:06;;;;;;;7.18;6.57;;;;;;;;;;5096371;28;20227;-53
2022/03/21 00:50:34;;;;;;;7.22;6.60;;;;;;;;;;5096983;28;20290;-53
2022/03/21 00:53:01;;;;;;;6.93;6.32;;;;;;;;;;5096417;28;20210;-53
2022/03/21 00:55:29;;;;;;;6.38;5.82;;;;;;;;;;5096847;28;20302;-53
2022/03/21 00:57:58;;;;;;;6.97;6.38;;;;;;;;;;5096936;28;20214;-53
2022/03/21 01:00:27;;;;;;;6.82;6.22;;;;;;;;;;5096392;28;20294;-53
2022/03/21 01:02:57;;;;;;;6.35;5.82;;;;;;;;;;5096846;28;20610;-53
2022/03/21 01:05:24;;;;;;;6.20;5.70;;;;;;;;;;5097320;28;20294;-53
2022/03/21 01:07:52;;;;;;;6.40;5.90;;;;;;;;;;5097504;28;20540;-53
2022/03/21 01:10:20;;;;;;;6.53;5.93;;;;;;;;;;5096895;28;20295;-53
2022/03/21 01:12:49;;;;;;;6.20;5.70;;;;;;;;;;5096831;28;20282;-53
2022/03/21 01:15:18;;;;;;;6.70;6.10;;;;;;;;;;5097483;28;20211;-53
2022/03/21 01:17:46;;;;;;;5.68;5.22;;;;;;;;;;5097243;28;20642;-53
2022/03/21 01:20:16;;;;;;;6.15;5.65;;;;;;;;;;5096751;28;20298;-53
2022/03/21 01:22:43;;;;;;;5.85;5.35;;;;;;;;;;5085520;28;20225;-53
2022/03/21 01:25:11;;;;;;;6.00;5.50;;;;;;;;;;5097671;28;20214;-53
2022/03/21 01:27:39;;;;;;;6.30;5.80;;;;;;;;;;5096551;28;20330;-53
2022/03/21 01:30:08;;;;;;;5.82;5.32;;;;;;;;;;5096862;28;20234;-53
2022/03/21 01:32:36;;;;;;;5.88;5.38;;;;;;;;;;5096404;28;20204;-53
2022/03/21 01:35:04;;;;;;;6.03;5.53;;;;;;;;;;5096613;28;20602;-53
2022/03/21 01:37:33;;;;;;;6.38;5.78;;;;;;;;;;5097026;28;20549;-53
2022/03/21 01:40:00;;;;;;;5.70;5.20;;;;;;;;;;5097462;28;20310;-53
2022/03/21 01:42:28;;;;;;;6.43;5.82;;;;;;;;;;5096750;28;20678;-53
2022/03/21 01:44:58;;;;;;;6.03;5.53;;;;;;;;;;5097564;28;20301;-53
2022/03/21 01:47:26;;;;;;;6.15;5.65;;;;;;;;;;5096656;28;20239;-53
2022/03/21 01:49:53;;;;;;;6.13;5.63;;;;;;;;;;5097129;28;20269;-53
2022/03/21 01:52:21;;;;;;;6.00;5.50;;;;;;;;;;5096858;28;20203;-53
2022/03/21 01:57:35;;;;;;;6.47;5.88;;;;;;;;;;5096792;28;20195;-53
2022/03/21 02:00:04;;;;;;;6.05;5.55;;;;;;;;;;5097266;28;20306;-53
2022/03/21 02:02:33;;;;;;;5.72;5.22;;;;;;;;;;5096861;28;20239;-53
2022/03/21 02:05:00;;;;;;;5.80;5.30;;;;;;;;;;5096933;28;20317;-53
2022/03/21 02:07:28;;;;;;;5.40;5.00;;;;;;;;;;5096920;28;20258;-53
2022/03/21 02:09:57;;;;;;;5.85;5.35;;;;;;;;;;5097142;28;20306;-53
2022/03/21 02:12:24;;;;;;;5.60;5.10;;;;;;;;;;5096752;28;20294;-53
2022/03/21 02:14:52;;;;;;;5.60;5.20;;;;;;;;;;5096635;28;20291;-53
2022/03/21 02:17:20;;;;;;;6.30;5.80;;;;;;;;;;5097074;28;20286;-53
2022/03/21 02:19:49;;;;;;;5.72;5.22;;;;;;;;;;5096837;28;20479;-53
2022/03/21 02:22:24;;;;;;;5.80;5.30;;;;;;;;;;5096879;28;20282;-53
2022/03/21 02:24:54;;;;;;;5.70;5.20;;;;;;;;;;5100122;28;20325;-53
2022/03/21 02:27:23;;;;;;;5.75;5.25;;;;;;;;;;5100181;28;20210;-53
2022/03/21 02:29:51;;;;;;;5.65;5.22;;;;;;;;;;5100463;28;20286;-53
2022/03/21 02:32:20;;;;;;;5.90;5.40;;;;;;;;;;5100236;28;20195;-53
2022/03/21 02:34:48;;;;;;;5.72;5.32;;;;;;;;;;5100267;28;20215;-53
2022/03/21 02:37:18;;;;;;;5.47;5.00;;;;;;;;;;5100689;28;20306;-53
2022/03/21 02:39:46;;;;;;;5.43;5.00;;;;;;;;;;5101145;28;20298;-53
2022/03/21 02:42:14;;;;;;;5.38;4.97;;;;;;;;;;5100734;28;20212;-53
2022/03/21 02:44:43;;;;;;;5.35;4.95;;;;;;;;;;5100112;28;20618;-53
2022/03/21 02:47:11;;;;;;;5.50;5.10;;;;;;;;;;5100353;28;20599;-53
2022/03/21 02:49:38;;;;;;;5.45;5.05;;;;;;;;;;5099686;28;20204;-53
2022/03/21 02:52:07;;;;;;;5.50;5.10;;;;;;;;;;5100555;28;20290;-53
2022/03/21 02:54:35;;;;;;;5.50;5.10;;;;;;;;;;5100408;28;20291;-53
2022/03/21 02:57:03;;;;;;;5.70;5.20;;;;;;;;;;5100275;28;20298;-53
2022/03/21 02:59:30;;;;;;;5.35;4.85;;;;;;;;;;5098633;28;20210;-53
2022/03/21 03:01:59;;;;;;;5.93;5.43;;;;;;;;;;5099239;28;20212;-53
2022/03/21 03:04:27;;;;;;;5.20;4.80;;;;;;;;;;5099414;28;20314;-53
2022/03/21 03:06:55;;;;;;;5.30;4.90;;;;;;;;;;5098566;28;20203;-53
2022/03/21 03:09:22;;;;;;;5.60;5.10;;;;;;;;;;5098242;28;20210;-53
2022/03/21 03:11:50;;;;;;;5.53;5.13;;;;;;;;;;5099047;28;20538;-53
2022/03/21 03:14:17;;;;;;;5.18;4.78;;;;;;;;;;5098844;28;20248;-53
2022/03/21 03:16:45;;;;;;;5.82;5.32;;;;;;;;;;5098881;28;20502;-53
2022/03/21 03:19:14;;;;;;;5.05;4.65;;;;;;;;;;5098535;28;20212;-53
2022/03/21 03:21:43;;;;;;;5.07;4.68;;;;;;;;;;5098941;28;20204;-53
2022/03/21 03:24:11;;;;;;;5.40;5.00;;;;;;;;;;5098967;28;20228;-53
2022/03/21 03:26:38;;;;;;;5.45;5.05;;;;;;;;;;5098607;28;20306;-53
2022/03/21 03:29:06;;;;;;;5.43;5.03;;;;;;;;;;5099308;28;20298;-53
2022/03/21 03:31:33;;;;;;;5.60;5.10;;;;;;;;;;5099713;28;20298;-53
2022/03/21 03:34:01;;;;;;;5.07;4.68;;;;;;;;;;5099403;28;20209;-53
2022/03/21 03:36:30;;;;;;;5.03;4.63;;;;;;;;;;5098467;28;20283;-53
2022/03/21 03:38:58;;;;;;;5.20;4.80;;;;;;;;;;5099252;28;20204;-53
2022/03/21 03:41:26;;;;;;;5.30;4.90;;;;;;;;;;5100043;28;20203;-53
2022/03/21 03:43:54;;;;;;;5.25;4.85;;;;;;;;;;5099544;28;20224;-53
2022/03/21 03:46:22;;;;;;;5.18;4.78;;;;;;;;;;5099125;28;20204;-53
2022/03/21 03:48:49;;;;;;;5.07;4.60;;;;;;;;;;5099212;28;20589;-53
2022/03/21 03:51:17;;;;;;;5.20;4.80;;;;;;;;;;5098910;28;20246;-53
2022/03/21 03:53:46;;;;;;;5.53;5.13;;;;;;;;;;5098912;28;20199;-53
2022/03/21 03:56:13;;;;;;;4.90;4.50;;;;;;;;;;5099212;28;20292;-53
2022/03/21 03:58:41;;;;;;;5.18;4.78;;;;;;;;;;5098578;28;20298;-53
2022/03/21 04:01:09;;;;;;;5.18;4.78;;;;;;;;;;5098860;28;20211;-53
2022/03/21 04:03:48;;;;;;;4.45;4.15;;;;;;;;;;5098663;28;20294;-53
2022/03/21 04:06:17;;;;;;;4.88;4.47;;;;;;;;;;5098453;28;20203;-53
2022/03/21 04:08:46;;;;;;;4.97;4.63;;;;;;;;;;5098904;28;20370;-53
2022/03/21 04:11:14;;;;;;;5.30;4.90;;;;;;;;;;5098438;28;20393;-53
2022/03/21 04:13:41;;;;;;;5.45;4.95;;;;;;;;;;5098002;28;20203;-53
2022/03/21 04:16:09;;;;;;;4.80;4.40;;;;;;;;;;5098742;28;20243;-53
2022/03/21 04:18:37;;;;;;;4.95;4.55;;;;;;;;;;5098125;28;20204;-53
2022/03/21 04:21:05;;;;;;;5.38;4.88;;;;;;;;;;5098266;28;20246;-53
2022/03/21 04:23:32;;;;;;;5.13;4.70;;;;;;;;;;5097958;28;20330;-53
2022/03/21 04:26:01;;;;;;;4.90;4.50;;;;;;;;;;5097313;28;20294;-53
2022/03/21 04:28:29;;;;;;;5.05;4.65;;;;;;;;;;5097101;28;20670;-53
2022/03/21 04:30:56;;;;;;;4.88;4.50;;;;;;;;;;5097850;28;20210;-53
2022/03/21 04:33:24;;;;;;;4.70;4.30;;;;;;;;;;5097930;28;20203;-53
2022/03/21 04:35:51;;;;;;;5.35;4.95;;;;;;;;;;5097920;28;20210;-53
2022/03/21 04:38:19;;;;;;;4.82;4.45;;;;;;;;;;5097911;28;20298;-53
2022/03/21 04:40:47;;;;;;;5.03;4.63;;;;;;;;;;5097507;28;20224;-53
2022/03/21 04:43:18;;;;;;;5.20;4.80;;;;;;;;;;5097517;28;20314;-53
2022/03/21 04:45:48;;;;;;;4.85;4.50;;;;;;;;;;5096929;28;20322;-53
2022/03/21 04:48:16;;;;;;;5.50;5.03;;;;;;;;;;5096207;28;20314;-53
2022/03/21 04:50:45;;;;;;;5.00;4.60;;;;;;;;;;5097643;28;20306;-53
2022/03/21 04:53:12;;;;;;;5.10;4.70;;;;;;;;;;5097118;28;20294;-53
2022/03/21 04:55:40;;;;;;;4.82;4.43;;;;;;;;;;5095562;28;20286;-53
2022/03/21 04:58:08;;;;;;;5.10;4.70;;;;;;;;;;5097459;28;20204;-53
2022/03/21 05:00:37;;;;;;;4.72;4.35;;;;;;;;;;5096817;28;20233;-53
2022/03/21 05:03:07;;;;;;;5.18;4.78;;;;;;;;;;5096689;28;20210;-53
2022/03/21 05:05:35;;;;;;;4.82;4.43;;;;;;;;;;5096623;28;20227;-53
2022/03/21 05:08:03;;;;;;;4.93;4.53;;;;;;;;;;5095813;28;20583;-53
2022/03/21 05:10:32;;;;;;;4.85;4.45;;;;;;;;;;5096606;28;20298;-53
2022/03/21 05:13:00;;;;;;;4.78;4.38;;;;;;;;;;5097019;28;20527;-53
2022/03/21 05:15:27;;;;;;;4.88;4.47;;;;;;;;;;5096988;28;20231;-53
2022/03/21 05:17:56;;;;;;;5.22;4.72;;;;;;;;;;5096490;28;20200;-53
2022/03/21 05:20:24;;;;;;;4.68;4.32;;;;;;;;;;5096620;28;20321;-53
2022/03/21 05:31:03;;;;;;;4.95;4.55;;;;;;;;;;5095976;28;20485;-53
2022/03/21 05:36:17;;;;;;;5.43;4.93;;;;;;;;;;5095661;28;20194;-53
2022/03/21 05:38:45;;;;;;;5.07;4.68;;;;;;;;;;5095816;28;20571;-53
2022/03/21 05:41:13;;;;;;;4.90;4.50;;;;;;;;;;5095711;28;20282;-53
2022/03/21 05:43:41;;;;;;;5.05;4.65;;;;;;;;;;5096498;28;20298;-53
2022/03/21 05:46:08;;;;;;;4.93;4.53;;;;;;;;;;5095331;28;20235;-53
2022/03/21 05:48:54;;;;;;;5.00;4.60;;;;;;;;;;5095773;28;20231;-53
2022/03/21 05:51:23;;;;;;;5.35;4.95;;;;;;;;;;5095145;28;20203;-53
2022/03/21 05:53:51;;;;;;;4.80;4.40;;;;;;;;;;5093465;28;20218;-53
2022/03/21 05:56:19;;;;;;;4.72;4.35;;;;;;;;;;5093160;28;20215;-53
2022/03/21 05:58:46;;;;;;;4.90;4.50;;;;;;;;;;5092393;28;20298;-53
2022/03/21 06:01:15;;;;;;;4.47;4.18;;;;;;;;;;5093620;28;20543;-53
2022/03/21 06:03:44;;;;;;;4.85;4.45;;;;;;;;;;5094360;28;20467;-53
2022/03/21 06:06:13;;;;;;;5.03;4.63;;;;;;;;;;5094339;28;20215;-53
2022/03/21 06:08:41;;;;;;;4.93;4.53;;;;;;;;;;5092507;28;20649;-53
2022/03/21 06:11:09;;;;;;;4.63;4.22;;;;;;;;;;5091626;28;20230;-53
2022/03/21 06:13:37;;;;;;;5.10;4.70;;;;;;;;;;5092679;28;20574;-53
2022/03/21 06:16:06;;;;;;;4.85;4.45;;;;;;;;;;5092141;28;20289;-53
2022/03/21 06:18:33;;;;;;;5.28;4.88;;;;;;;;;;5091504;28;20288;-53
2022/03/21 06:21:03;;;;;;;4.97;4.57;;;;;;;;;;5091166;28;20290;-53
2022/03/21 06:23:30;;;;;;;4.75;4.38;;;;;;;;;;5093070;28;20221;-53
2022/03/21 06:25:58;;;;;;;4.32;4.03;;;;;;;;;;5091338;28;20228;-53
2022/03/21 06:28:27;;;;;;;5.07;4.68;;;;;;;;;;5092558;28;20302;-53
2022/03/21 06:30:55;;;;;;;5.05;4.65;;;;;;;;;;5092440;28;20501;-53
2022/03/21 06:33:23;;;;;;;4.97;4.57;;;;;;;;;;5092369;28;20235;-53
2022/03/21 06:35:50;;;;;;;4.90;4.50;;;;;;;;;;5093763;28;20200;-53
2022/03/21 06:38:24;;;;;;;5.43;5.03;;;;;;;;;;5094667;28;20303;-53
2022/03/21 06:40:52;;;;;;;4.90;4.50;;;;;;;;;;5091948;28;20204;-53
2022/03/21 06:43:20;;;;;;;4.40;4.10;;;;;;;;;;5093502;28;20565;-53
2022/03/21 06:45:50;;;;;;;4.60;4.20;;;;;;;;;;5093291;28;20262;-53
2022/03/21 06:48:18;;;;;;;4.80;4.40;;;;;;;;;;5092036;28;20231;-53
2022/03/21 06:50:46;;;;;;;4.75;4.40;;;;;;;;;;5090955;28;20195;-53
2022/03/21 06:53:13;;;;;;;4.35;4.05;;;;;;;;;;5092617;28;20319;-53
2022/03/21 06:55:42;;;;;;;4.72;4.32;;;;;;;;;;5092348;28;20200;-53
2022/03/21 06:58:11;;;;;;;4.47;4.15;;;;;;;;;;5092698;28;20204;-53
2022/03/21 07:00:40;;;;;;;4.80;4.30;;;;;;;;;;5093028;28;20204;-53
2022/03/21 07:03:08;;;;;;;4.90;4.50;;;;;;;;;;5092013;28;20204;-53
2022/03/21 07:05:35;;;;;;;4.72;4.32;;;;;;;;;;5092657;28;20219;-53
2022/03/21 07:08:03;;;;;;;4.55;4.25;;;;;;;;;;5091944;28;20203;-53
2022/03/21 07:10:32;;;;;;;4.90;4.50;;;;;;;;;;5092539;28;20298;-53
2022/03/21 07:13:01;;;;;;;4.50;4.10;;;;;;;;;;5095249;28;20204;-53
2022/03/21 07:15:29;;;;;;;4.53;4.20;;;;;;;;;;5095887;28;20199;-53
2022/03/21 07:17:56;;;;;;;4.80;4.40;;;;;;;;;;5096275;28;20204;-53
2022/03/21 07:20:25;;;;;;;4.65;4.25;;;;;;;;;;5096505;28;20479;-53
2022/03/21 07:22:54;;;;;;;5.20;4.80;;;;;;;;;;5096358;28;20196;-53
2022/03/21 07:25:21;;;;;;;4.43;4.05;;;;;;;;;;5096665;28;20224;-53
2022/03/21 07:27:49;;;;;;;4.90;4.50;;;;;;;;;;5097273;28;20302;-53
2022/03/21 07:30:18;;;;;;;4.88;4.47;;;;;;;;;;5096518;28;20302;-53
2022/03/21 07:32:46;;;;;;;4.85;4.45;;;;;;;;;;5095819;28;20233;-53
2022/03/21 07:35:14;;;;;;;4.88;4.47;;;;;;;;;;5097238;28;20563;-53
2022/03/21 07:37:42;;;;;;;4.78;4.38;;;;;;;;;;5096502;28;20203;-53
2022/03/21 07:40:11;;;;;;;4.57;4.20;;;;;;;;;;5095018;28;20207;-53
2022/03/21 07:42:38;;;;;;;4.55;4.15;;;;;;;;;;5094559;28;20204;-53
2022/03/21 07:47:52;;;;;;;4.60;4.20;;;;;;;;;;5094306;28;20230;-53
2022/03/21 07:50:20;;;;;;;4.50;4.15;;;;;;;;;;5094686;28;20204;-53
2022/03/21 07:52:47;;;;;;;4.65;4.25;;;;;;;;;;5093651;28;20254;-53
2022/03/21 07:55:15;;;;;;;4.28;3.97;;;;;;;;;;5094537;28;20204;-53
2022/03/21 07:57:42;;;;;;;4.53;4.13;;;;;;;;;;5092310;28;20204;-53
2022/03/21 08:00:11;;;;;;;4.40;4.10;;;;;;;;;;5105325;28;20299;-53
2022/03/21 08:02:42;;;;;;;4.63;4.22;;;;;;;;;;5101274;28;20468;-53
2022/03/21 08:05:13;;;;;;;4.60;4.20;;;;;;;;;;5114586;28;20223;-53
2022/03/21 08:07:40;;;;;;;4.05;3.65;;;;;;;;;;5101336;28;20444;-53
2022/03/21 08:10:08;;;;;;;4.45;4.07;;;;;;;;;;5093784;28;20478;-53
2022/03/21 08:12:36;;;;;;;4.53;4.13;;;;;;;;;;5094069;28;20200;-53
2022/03/21 08:15:04;;;;;;;4.68;4.28;;;;;;;;;;5091897;28;20201;-53
2022/03/21 08:17:33;;;;;;;4.00;3.67;;;;;;;;;;5095398;28;20205;-53
2022/03/21 08:20:01;;;;;;;4.60;4.20;;;;;;;;;;5095597;28;20215;-53
2022/03/21 08:22:30;;;;;;;4.63;4.22;;;;;;;;;;5094800;28;20638;-53
2022/03/21 08:24:57;;;;;;;4.40;4.10;;;;;;;;;;5093695;28;20203;-53
2022/03/21 08:27:25;;;;;;;4.18;3.88;;;;;;;;;;5095399;28;20199;-53
2022/03/21 08:29:52;;;;;;;4.30;3.90;;;;;;;;;;5093436;28;20204;-53
2022/03/21 08:32:19;;;;;;;4.63;4.22;;;;;;;;;;5093210;28;20604;-53
2022/03/21 08:34:47;;;;;;;4.28;3.97;;;;;;;;;;5093573;28;20199;-53
2022/03/21 08:37:14;;;;;;;4.68;4.07;;;;;;;;;;5095842;28;20210;-53
2022/03/21 08:39:43;;;;;;;4.47;4.15;;;;;;;;;;5093201;28;20373;-53
2022/03/21 08:42:11;;;;;;;4.47;4.03;;;;;;;;;;5092380;28;20239;-53
2022/03/21 08:44:39;;;;;;;4.53;4.22;;;;;;;;;;5091175;28;20204;-53
2022/03/21 08:47:07;;;;;;;4.70;4.30;;;;;;;;;;5091387;28;20230;-53
2022/03/21 08:49:37;;;;;;;4.30;4.00;;;;;;;;;;5093863;28;20203;-53
2022/03/21 08:52:06;;;;;;;4.18;3.88;;;;;;;;;;5091893;28;20243;-53
2022/03/21 08:54:33;;;;;;;4.30;4.00;;;;;;;;;;5091911;28;20468;-53
2022/03/21 08:57:04;;;;;;;4.05;3.75;;;;;;;;;;5093897;28;20295;-53
2022/03/21 08:59:32;;;;;;;4.82;4.40;;;;;;;;;;5094421;28;20231;-53
2022/03/21 09:02:00;;;;;;;4.55;4.15;;;;;;;;;;5095102;28;20650;-53
2022/03/21 09:04:27;;;;;;;4.38;4.03;;;;;;;;;;5093925;28;20287;-53
2022/03/21 09:06:55;;;;;;;4.20;3.80;;;;;;;;;;5092919;28;20215;-53
2022/03/21 09:09:22;;;;;;;4.45;4.05;;;;;;;;;;5092899;28;20314;-53
2022/03/21 09:11:51;;;;;;;4.35;3.95;;;;;;;;;;5094813;28;20210;-53
2022/03/21 09:14:20;;;;;;;4.20;3.85;;;;;;;;;;5094805;28;20207;-53
2022/03/21 09:16:50;;;;;;;3.92;3.63;;;;;;;;;;5093119;28;20302;-53
2022/03/21 09:19:18;;;;;;;4.00;3.70;;;;;;;;;;5092444;28;20303;-53
2022/03/21 09:21:46;;;;;;;3.90;3.60;;;;;;;;;;5093005;28;20490;-53
2022/03/21 09:24:13;;;;;;;4.40;4.00;;;;;;;;;;5092639;28;20451;-53
2022/03/21 09:26:40;;;;;;;4.38;3.97;;;;;;;;;;5091376;28;20229;-53
2022/03/21 09:29:09;;;;;;;4.40;4.00;;;;;;;;;;5091690;28;20299;-53
2022/03/21 09:31:39;;;;;;;4.10;3.80;;;;;;;;;;5093341;28;20282;-53
2022/03/21 09:34:06;;;;;;;3.97;3.65;;;;;;;;;;5093376;28;20218;-53
2022/03/21 09:36:33;;;;;;;4.05;3.67;;;;;;;;;;5092899;28;20203;-53
2022/03/21 09:39:01;;;;;;;4.15;3.85;;;;;;;;;;5092646;28;20488;-53
2022/03/21 09:41:30;;;;;;;4.10;3.80;;;;;;;;;;5092281;28;20204;-53
2022/03/21 09:44:00;;;;;;;4.28;3.97;;;;;;;;;;5090668;28;20210;-53
2022/03/21 09:46:27;;;;;;;3.92;3.53;;;;;;;;;;5091142;28;20570;-53
2022/03/21 09:48:57;;;;;;;3.92;3.60;;;;;;;;;;5091565;28;20302;-53
2022/03/21 09:51:25;;;;;;;4.28;3.88;;;;;;;;;;5090489;28;20359;-53
2022/03/21 09:53:53;;;;;;;4.35;4.00;;;;;;;;;;5090069;28;20333;-53
2022/03/21 09:56:20;;;;;;;4.57;4.18;;;;;;;;;;5091709;28;20306;-53
2022/03/21 09:58:48;;;;;;;4.40;4.00;;;;;;;;;;5089784;28;20318;-53
2022/03/21 10:01:16;;;;;;;4.20;3.67;;;;;;;;;;5092827;28;20392;-53
2022/03/21 10:03:44;;;;;;;3.78;3.47;;;;;;;;;;5091106;28;20203;-53
2022/03/21 10:06:29;;;;;;;4.45;4.07;;;;;;;;;;5091345;28;20216;-53
2022/03/21 10:09:10;;;;;;;4.30;3.90;;;;;;;;;;5091824;28;20210;-53
2022/03/21 10:11:38;;;;;;;4.32;3.90;;;;;;;;;;5091358;28;20210;-53
2022/03/21 10:14:25;;;;;;;4.22;3.83;;;;;;;;;;5091065;28;20330;-53
2022/03/21 10:16:53;;;;;;;4.07;3.75;;;;;;;;;;5090842;28;20200;-53
2022/03/21 10:19:21;;;;;;;4.32;3.92;;;;;;;;;;5091125;28;20226;-53
2022/03/21 10:22:09;;;;;;;4.20;3.90;;;;;;;;;;5090251;28;20249;-53
2022/03/21 10:24:38;;;;;;;4.35;3.95;;;;;;;;;;5089366;28;20208;-53
2022/03/21 10:27:06;;;;;;;3.83;3.42;;;;;;;;;;5090103;28;20357;-53
2022/03/21 10:29:33;;;;;;;4.15;3.85;;;;;;;;;;5089552;28;20204;-53
2022/03/21 10:32:01;;;;;;;4.55;4.20;;;;;;;;;;5089440;28;20507;-53
2022/03/21 10:34:33;;;;;;;4.07;3.78;;;;;;;;;;5090278;28;20294;-53
2022/03/21 10:37:02;;;;;;;4.10;3.75;;;;;;;;;;5089318;28;20327;-53
2022/03/21 10:39:32;;;;;;;3.97;3.67;;;;;;;;;;5090987;28;20589;-53
2022/03/21 10:42:00;;;;;;;4.30;3.90;;;;;;;;;;5089838;28;20287;-53
2022/03/21 10:44:28;;;;;;;4.35;3.95;;;;;;;;;;5089632;28;20210;-53
2022/03/21 10:46:56;;;;;;;4.40;3.90;;;;;;;;;;5092589;28;20238;-53
2022/03/21 10:49:31;;;;;;;4.07;3.75;;;;;;;;;;5094268;28;20580;-53
2022/03/21 10:51:59;;;;;;;4.30;3.90;;;;;;;;;;5093762;28;20214;-53
2022/03/21 10:54:40;;;;;;;4.00;3.70;;;;;;;;;;5095690;28;20298;-53
2022/03/21 10:57:09;;;;;;;4.28;3.92;;;;;;;;;;5093597;28;20351;-53
2022/03/21 10:59:36;;;;;;;4.03;3.72;;;;;;;;;;5093175;28;20208;-53
2022/03/21 11:02:14;;;;;;;4.45;4.07;;;;;;;;;;5093091;28;20222;-53
2022/03/21 11:04:43;;;;;;;4.57;4.18;;;;;;;;;;5093508;28;20260;-53
2022/03/21 11:07:12;;;;;;;4.32;3.92;;;;;;;;;;5092440;28;20626;-53
2022/03/21 11:09:42;;;;;;;4.18;3.88;;;;;;;;;;5092381;28;20459;-53
2022/03/21 11:12:11;;;;;;;4.35;3.95;;;;;;;;;;5093017;28;20210;-53
2022/03/21 11:14:40;;;;;;;4.47;4.03;;;;;;;;;;5093792;28;20196;-53
2022/03/21 11:17:08;;;;;;;4.00;3.70;;;;;;;;;;5093840;28;20195;-53
2022/03/21 11:19:36;;;;;;;4.10;3.80;;;;;;;;;;5093515;28;20230;-53
2022/03/21 11:22:04;;;;;;;4.07;3.78;;;;;;;;;;5092195;28;20200;-53
2022/03/21 11:24:34;;;;;;;4.20;3.90;;;;;;;;;;5093442;28;20199;-53
2022/03/21 11:27:22;;;;;;;4.43;4.03;;;;;;;;;;5093621;28;20336;-53
2022/03/21 11:29:55;;;;;;;4.22;3.90;;;;;;;;;;5092003;28;20545;-53
2022/03/21 11:32:28;;;;;;;4.00;3.70;;;;;;;;;;5092746;28;20312;-53
2022/03/21 11:34:59;;;;;;;4.25;3.95;;;;;;;;;;5091980;28;20199;-53
2022/03/21 11:37:27;;;;;;;3.92;3.63;;;;;;;;;;5091633;28;20198;-53
2022/03/21 11:40:12;;;;;;;4.40;4.00;;;;;;;;;;5091633;28;20199;-53
2022/03/21 11:42:41;;;;;;;4.03;3.63;;;;;;;;;;5095240;28;20302;-53
2022/03/21 11:45:26;;;;;;;4.50;4.10;;;;;;;;;;5093432;28;20196;-53
2022/03/21 11:48:09;;;;;;;3.83;3.53;;;;;;;;;;5093484;28;20686;-53
2022/03/21 11:50:36;;;;;;;4.05;3.65;;;;;;;;;;5093980;28;20206;-53
2022/03/21 11:53:08;;;;;;;4.00;3.70;;;;;;;;;;5093648;28;20310;-53
2022/03/21 11:55:40;;;;;;;4.28;3.88;;;;;;;;;;5094874;28;20203;-53
2022/03/21 11:58:27;;;;;;;4.47;4.07;;;;;;;;;;5094096;28;20207;-53
2022/03/21 12:01:05;;;;;;;3.95;3.60;;;;;;;;;;5093648;28;20208;-53
2022/03/21 12:03:32;;;;;;;3.85;3.55;;;;;;;;;;5094562;28;20311;-53
2022/03/21 12:06:00;;;;;;;4.22;3.83;;;;;;;;;;5093503;28;20214;-53
2022/03/21 12:08:43;;;;;;;4.32;3.92;;;;;;;;;;5094475;28;20218;-53
2022/03/21 12:11:10;;;;;;;4.20;3.90;;;;;;;;;;5090914;28;20583;-53
2022/03/21 12:13:47;;;;;;;4.00;3.58;;;;;;;;;;5093579;28;20290;-53
2022/03/21 12:16:19;;;;;;;4.65;4.18;;;;;;;;;;5094718;28;20199;-53
2022/03/21 12:19:00;;;;;;;4.15;3.72;;;;;;;;;;5093953;28;20199;-53
2022/03/21 12:21:28;;;;;;;4.50;4.10;;;;;;;;;;5094090;28;20290;-53
2022/03/21 12:24:14;;;;;;;4.30;3.90;;;;;;;;;;5093497;28;20203;-53
2022/03/21 12:26:49;;;;;;;3.90;3.60;;;;;;;;;;5094386;28;20223;-53
2022/03/21 12:29:33;;;;;;;4.47;4.07;;;;;;;;;;5094261;28;20226;-53
2022/03/21 12:32:19;;;;;;;3.92;3.63;;;;;;;;;;5094407;28;20532;-53
2022/03/21 12:34:49;;;;;;;4.00;3.70;;;;;;;;;;5094075;28;20228;-53
2022/03/21 12:37:25;;;;;;;4.03;3.67;;;;;;;;;;5093961;28;20196;-53
2022/03/21 12:39:55;;;;;;;4.60;4.20;;;;;;;;;;5094265;28;20290;-53
2022/03/21 12:42:23;;;;;;;4.45;4.05;;;;;;;;;;5094301;28;20204;-53
2022/03/21 12:44:50;;;;;;;4.05;3.75;;;;;;;;;;5092865;28;20204;-53
2022/03/21 12:47:18;;;;;;;4.00;3.70;;;;;;;;;;5091368;28;20366;-53
2022/03/21 12:49:50;;;;;;;4.15;3.75;;;;;;;;;;5092236;28;20306;-53
2022/03/21 12:52:28;;;;;;;4.13;3.72;;;;;;;;;;5091666;28;20203;-53
2022/03/21 12:54:57;;;;;;;4.40;4.00;;;;;;;;;;5091624;28;20522;-53
2022/03/21 12:57:24;;;;;;;3.90;3.60;;;;;;;;;;5091269;28;20196;-53
2022/03/21 12:59:52;;;;;;;4.63;4.22;;;;;;;;;;5091948;28;20199;-53
2022/03/21 13:02:26;;;;;;;4.45;4.07;;;;;;;;;;5091052;28;20290;-53
2022/03/21 13:10:36;;;;;;;4.25;3.95;;;;;;;;;;5090607;28;20187;-53
2022/03/21 13:13:04;;;;;;;4.03;3.72;;;;;;;;;;5091569;28;20203;-53
2022/03/21 13:15:33;;;;;;;4.80;4.30;;;;;;;;;;5091824;28;20544;-53
2022/03/21 13:18:03;;;;;;;4.40;4.00;;;;;;;;;;5090440;28;20214;-53
2022/03/21 13:20:33;;;;;;;4.30;3.90;;;;;;;;;;5091171;28;20203;-53
2022/03/21 13:23:01;;;;;;;4.20;3.90;;;;;;;;;;5090248;28;20538;-53
2022/03/21 13:25:30;;;;;;;4.22;3.83;;;;;;;;;;5089702;28;20203;-53
2022/03/21 13:28:11;;;;;;;4.18;3.88;;;;;;;;;;5089277;28;20230;-53
2022/03/21 13:30:39;;;;;;;4.57;4.22;;;;;;;;;;5090534;28;20199;-53
2022/03/21 13:33:07;;;;;;;3.90;3.60;;;;;;;;;;5089721;28;20666;-53
2022/03/21 13:35:51;;;;;;;4.10;3.80;;;;;;;;;;5091013;28;20583;-53
2022/03/21 13:38:22;;;;;;;4.47;4.03;;;;;;;;;;5090330;28;20294;-53
2022/03/21 13:40:50;;;;;;;4.30;4.00;;;;;;;;;;5089565;28;20289;-53
2022/03/21 13:43:17;;;;;;;4.43;4.03;;;;;;;;;;5090314;28;20298;-53
2022/03/21 13:45:45;;;;;;;4.50;4.10;;;;;;;;;;5090165;28;20203;-53
2022/03/21 13:48:13;;;;;;;4.15;3.85;;;;;;;;;;5089361;28;20250;-53
2022/03/21 13:50:42;;;;;;;4.40;4.10;;;;;;;;;;5088493;28;20202;-53
2022/03/21 13:53:24;;;;;;;4.80;4.40;;;;;;;;;;5091289;28;20583;-53
2022/03/21 13:55:52;;;;;;;4.55;4.15;;;;;;;;;;5088520;28;20196;-53
2022/03/21 13:58:26;;;;;;;4.22;3.90;;;;;;;;;;5088610;28;20196;-53
2022/03/21 14:00:54;;;;;;;4.30;3.90;;;;;;;;;;5091752;28;20683;-53
2022/03/21 14:03:32;;;;;;;4.78;4.38;;;;;;;;;;5091265;28;20290;-53
2022/03/21 14:06:01;;;;;;;5.20;4.40;;;;;;;;;;5088819;28;20210;-53
2022/03/21 14:08:28;;;;;;;5.30;4.90;;;;;;;;;;5089508;28;20225;-53
2022/03/21 14:11:04;;;;;;;5.13;4.63;;;;;;;;;;5090735;28;20271;-53
2022/03/21 14:13:31;;;;;;;5.00;4.50;;;;;;;;;;5090126;28;20469;-53
2022/03/21 14:15:59;;;;;;;4.40;4.03;;;;;;;;;;5090487;28;20203;-53
2022/03/21 14:18:28;;;;;;;5.13;4.72;;;;;;;;;;5089882;28;20557;-53
2022/03/21 14:20:56;;;;;;;4.65;4.25;;;;;;;;;;5094366;28;20218;-53
2022/03/21 14:23:25;;;;;;;5.10;4.70;;;;;;;;;;5095696;28;20555;-53
2022/03/21 14:28:37;;;;;;;6.10;5.60;;;;;;;;;;5094410;28;20573;-53
2022/03/21 14:31:05;;;;;;;6.53;5.93;;;;;;;;;;5094617;28;20199;-53
2022/03/21 14:33:33;;;;;;;6.13;5.63;;;;;;;;;;5095126;28;20210;-53
2022/03/21 14:36:01;;;;;;;7.55;6.85;;;;;;;;;;5094897;28;20329;-53
2022/03/21 14:38:30;;;;;;;7.47;6.78;;;;;;;;;;5093235;28;20379;-53
2022/03/21 14:40:58;;;;;;;7.55;6.80;;;;;;;;;;5093642;28;20590;-53
2022/03/21 14:43:26;;;;;;;7.47;6.78;;;;;;;;;;5094605;28;20214;-53
2022/03/21 14:45:54;;;;;;;7.93;7.13;;;;;;;;;;5093663;28;20539;-53
2022/03/21 14:48:24;;;;;;;8.60;7.75;;;;;;;;;;5093477;28;20235;-53
2022/03/21 14:50:52;;;;;;;6.88;6.18;;;;;;;;;;5092291;28;20204;-52
2022/03/21 14:53:19;;;;;;;7.32;6.60;;;;;;;;;;5093700;28;20306;-53
2022/03/21 14:55:49;;;;;;;6.82;6.18;;;;;;;;;;5093493;28;20475;-53
2022/03/21 14:58:17;;;;;;;6.32;5.72;;;;;;;;;;5093487;28;20208;-53
2022/03/21 15:00:45;;;;;;;6.10;5.25;;;;;;;;;;5093165;28;20207;-53
2022/03/21 15:03:12;;;;;;;6.40;5.80;;;;;;;;;;5091499;28;20509;-53
2022/03/21 15:05:41;;;;;;;8.38;7.07;;;;;;;;;;5091757;28;20204;-53
2022/03/21 15:08:09;;;;;;;6.50;5.80;;;;;;;;;;5092101;28;20231;-53
2022/03/21 15:10:37;;;;;;;6.50;5.90;;;;;;;;;;5092388;28;20214;-53
2022/03/21 15:13:07;;;;;;;6.60;6.00;;;;;;;;;;5092347;28;20210;-53
2022/03/21 15:15:34;;;;;;;6.93;6.32;;;;;;;;;;5092546;28;20214;-53
2022/03/21 15:18:03;;;;;;;7.25;6.55;;;;;;;;;;5091058;28;20775;-53
2022/03/21 15:20:31;;;;;;;7.38;6.45;;;;;;;;;;5092350;28;20211;-53